sensor_id;sensor_type;location;lat;lon;timestamp;pressure;altitude;pressure_sealevel;temperature
70819;BMP280;58439;51.046;13.692;2023-04-03T00:01:36;101073.66;;;3.79
70819;BMP280;58439;51.046;13.692;2023-04-03T00:04:06;101064.66;;;3.73
70819;BMP280;58439;51.046;13.692;2023-04-03T00:06:34;101064.75;;;3.72
70819;BMP280;58439;51.046;13.692;2023-04-03T00:09:02;101061.59;;;3.68
70819;BMP280;58439;51.046;13.692;2023-04-03T00:11:30;101066.28;;;3.63
70819;BMP280;58439;51.046;13.692;2023-04-03T00:13:56;101068.97;;;3.62
70819;BMP280;58439;51.046;13.692;2023-04-03T00:16:24;101070.97;;;3.58
70819;BMP280;58439;51.046;13.692;2023-04-03T00:18:51;101078.00;;;3.56
70819;BMP280;58439;51.046;13.692;2023-04-03T00:21:18;101081.53;;;3.55
70819;BMP280;58439;51.046;13.692;2023-04-03T00:23:46;101081.09;;;3.50
70819;BMP280;58439;51.046;13.692;2023-04-03T00:26:13;101083.22;;;3.45
70819;BMP280;58439;51.046;13.692;2023-04-03T00:28:40;101086.72;;;3.44
70819;BMP280;58439;51.046;13.692;2023-04-03T00:31:08;101095.31;;;3.44
70819;BMP280;58439;51.046;13.692;2023-04-03T00:33:35;101089.91;;;3.47
70819;BMP280;58439;51.046;13.692;2023-04-03T00:36:13;101095.63;;;3.40
70819;BMP280;58439;51.046;13.692;2023-04-03T00:38:49;101097.06;;;3.33
70819;BMP280;58439;51.046;13.692;2023-04-03T00:41:22;101095.72;;;3.27
70819;BMP280;58439;51.046;13.692;2023-04-03T00:43:59;101095.72;;;3.16
70819;BMP280;58439;51.046;13.692;2023-04-03T00:46:39;101096.66;;;3.15
70819;BMP280;58439;51.046;13.692;2023-04-03T00:49:21;101089.84;;;3.14
70819;BMP280;58439;51.046;13.692;2023-04-03T00:51:48;101090.78;;;3.13
70819;BMP280;58439;51.046;13.692;2023-04-03T00:54:15;101097.09;;;3.09
70819;BMP280;58439;51.046;13.692;2023-04-03T01:00:30;101095.53;;;2.95
70819;BMP280;58439;51.046;13.692;2023-04-03T01:02:58;101099.06;;;2.94
70819;BMP280;58439;51.046;13.692;2023-04-03T01:05:26;101108.06;;;2.88
70819;BMP280;58439;51.046;13.692;2023-04-03T01:07:55;101106.31;;;2.89
70819;BMP280;58439;51.046;13.692;2023-04-03T01:10:23;101105.38;;;2.90
70819;BMP280;58439;51.046;13.692;2023-04-03T01:12:52;101104.31;;;2.92
70819;BMP280;58439;51.046;13.692;2023-04-03T01:15:26;101108.06;;;2.88
70819;BMP280;58439;51.046;13.692;2023-04-03T01:18:09;101110.03;;;2.85
70819;BMP280;58439;51.046;13.692;2023-04-03T01:24:11;101114.19;;;2.87
70819;BMP280;58439;51.046;13.692;2023-04-03T01:26:49;101117.28;;;2.80
70819;BMP280;58439;51.046;13.692;2023-04-03T01:29:23;101119.06;;;2.79
70819;BMP280;58439;51.046;13.692;2023-04-03T01:32:02;101121.16;;;2.74
70819;BMP280;58439;51.046;13.692;2023-04-03T01:34:30;101120.63;;;2.69
70819;BMP280;58439;51.046;13.692;2023-04-03T01:36:58;101126.03;;;2.66
70819;BMP280;58439;51.046;13.692;2023-04-03T01:39:29;101128.75;;;2.64
70819;BMP280;58439;51.046;13.692;2023-04-03T01:42:00;101130.50;;;2.64
70819;BMP280;58439;51.046;13.692;2023-04-03T01:44:35;101139.19;;;2.63
70819;BMP280;58439;51.046;13.692;2023-04-03T01:47:06;101131.97;;;2.55
70819;BMP280;58439;51.046;13.692;2023-04-03T01:49:34;101135.81;;;2.49
70819;BMP280;58439;51.046;13.692;2023-04-03T01:52:04;101137.56;;;2.49
70819;BMP280;58439;51.046;13.692;2023-04-03T01:54:31;101137.78;;;2.46
70819;BMP280;58439;51.046;13.692;2023-04-03T01:56:59;101140.56;;;2.43
70819;BMP280;58439;51.046;13.692;2023-04-03T01:59:29;101139.84;;;2.41
70819;BMP280;58439;51.046;13.692;2023-04-03T02:01:56;101142.66;;;2.38
70819;BMP280;58439;51.046;13.692;2023-04-03T02:04:26;101149.53;;;2.37
70819;BMP280;58439;51.046;13.692;2023-04-03T02:06:53;101152.13;;;2.37
70819;BMP280;58439;51.046;13.692;2023-04-03T02:09:22;101152.38;;;2.34
70819;BMP280;58439;51.046;13.692;2023-04-03T02:11:52;101148.09;;;2.33
70819;BMP280;58439;51.046;13.692;2023-04-03T02:14:20;101157.47;;;2.23
70819;BMP280;58439;51.046;13.692;2023-04-03T02:17:11;101159.00;;;2.13
70819;BMP280;58439;51.046;13.692;2023-04-03T02:19:57;101159.09;;;2.11
70819;BMP280;58439;51.046;13.692;2023-04-03T02:22:38;101156.03;;;2.06
70819;BMP280;58439;51.046;13.692;2023-04-03T02:25:20;101155.28;;;2.04
70819;BMP280;58439;51.046;13.692;2023-04-03T02:27:48;101155.59;;;1.99
70819;BMP280;58439;51.046;13.692;2023-04-03T02:30:18;101161.38;;;1.90
70819;BMP280;58439;51.046;13.692;2023-04-03T02:32:45;101163.38;;;1.87
70819;BMP280;58439;51.046;13.692;2023-04-03T02:35:24;101175.53;;;1.85
70819;BMP280;58439;51.046;13.692;2023-04-03T02:37:52;101175.63;;;1.83
70819;BMP280;58439;51.046;13.692;2023-04-03T02:40:19;101164.50;;;1.83
70819;BMP280;58439;51.046;13.692;2023-04-03T02:43:13;101173.88;;;1.84
70819;BMP280;58439;51.046;13.692;2023-04-03T02:46:17;101174.56;;;1.73
70819;BMP280;58439;51.046;13.692;2023-04-03T02:48:45;101176.13;;;1.63
70819;BMP280;58439;51.046;13.692;2023-04-03T02:51:12;101175.06;;;1.53
70819;BMP280;58439;51.046;13.692;2023-04-03T02:53:39;101182.97;;;1.49
70819;BMP280;58439;51.046;13.692;2023-04-03T02:56:12;101184.41;;;1.41
70819;BMP280;58439;51.046;13.692;2023-04-03T02:58:40;101183.38;;;1.31
70819;BMP280;58439;51.046;13.692;2023-04-03T03:01:08;101191.59;;;1.23
70819;BMP280;58439;51.046;13.692;2023-04-03T03:03:36;101188.75;;;1.13
70819;BMP280;58439;51.046;13.692;2023-04-03T03:06:13;101194.78;;;0.99
70819;BMP280;58439;51.046;13.692;2023-04-03T03:08:41;101191.41;;;0.85
70819;BMP280;58439;51.046;13.692;2023-04-03T03:11:09;101192.97;;;0.73
70819;BMP280;58439;51.046;13.692;2023-04-03T03:13:39;101188.00;;;0.70
70819;BMP280;58439;51.046;13.692;2023-04-03T03:16:43;101195.28;;;0.63
70819;BMP280;58439;51.046;13.692;2023-04-03T03:19:22;101198.25;;;0.57
70819;BMP280;58439;51.046;13.692;2023-04-03T03:22:02;101195.47;;;0.60
70819;BMP280;58439;51.046;13.692;2023-04-03T03:24:53;101202.16;;;0.63
70819;BMP280;58439;51.046;13.692;2023-04-03T03:27:20;101192.44;;;0.54
70819;BMP280;58439;51.046;13.692;2023-04-03T03:29:47;101199.44;;;0.52
70819;BMP280;58439;51.046;13.692;2023-04-03T03:32:15;101198.59;;;0.51
70819;BMP280;58439;51.046;13.692;2023-04-03T03:34:42;101197.34;;;0.44
70819;BMP280;58439;51.046;13.692;2023-04-03T03:37:09;101197.69;;;0.38
70819;BMP280;58439;51.046;13.692;2023-04-03T03:39:37;101197.44;;;0.28
70819;BMP280;58439;51.046;13.692;2023-04-03T03:42:04;101200.38;;;0.22
70819;BMP280;58439;51.046;13.692;2023-04-03T03:44:31;101209.28;;;0.16
70819;BMP280;58439;51.046;13.692;2023-04-03T03:46:59;101204.38;;;0.12
70819;BMP280;58439;51.046;13.692;2023-04-03T03:49:28;101206.06;;;0.13
70819;BMP280;58439;51.046;13.692;2023-04-03T03:51:55;101208.44;;;0.16
70819;BMP280;58439;51.046;13.692;2023-04-03T03:54:22;101212.41;;;0.21
70819;BMP280;58439;51.046;13.692;2023-04-03T03:56:50;101210.09;;;0.17
70819;BMP280;58439;51.046;13.692;2023-04-03T03:59:18;101204.31;;;0.13
70819;BMP280;58439;51.046;13.692;2023-04-03T04:01:45;101214.66;;;0.12
70819;BMP280;58439;51.046;13.692;2023-04-03T04:04:13;101216.97;;;0.02
70819;BMP280;58439;51.046;13.692;2023-04-03T04:07:03;101221.44;;;-0.02
70819;BMP280;58439;51.046;13.692;2023-04-03T04:09:32;101214.00;;;-0.06
70819;BMP280;58439;51.046;13.692;2023-04-03T04:11:59;101211.53;;;-0.08
70819;BMP280;58439;51.046;13.692;2023-04-03T04:15:02;101222.00;;;-0.11
70819;BMP280;58439;51.046;13.692;2023-04-03T04:22:21;101231.13;;;-0.37
70819;BMP280;58439;51.046;13.692;2023-04-03T04:24:56;101232.88;;;-0.37
70819;BMP280;58439;51.046;13.692;2023-04-03T04:27:25;101235.44;;;-0.37
70819;BMP280;58439;51.046;13.692;2023-04-03T04:30:03;101234.13;;;-0.44
70819;BMP280;58439;51.046;13.692;2023-04-03T04:32:49;101243.69;;;-0.46
70819;BMP280;58439;51.046;13.692;2023-04-03T04:35:33;101243.56;;;-0.45
70819;BMP280;58439;51.046;13.692;2023-04-03T04:38:07;101247.16;;;-0.47
70819;BMP280;58439;51.046;13.692;2023-04-03T04:41:11;101253.34;;;-0.52
70819;BMP280;58439;51.046;13.692;2023-04-03T04:44:22;101256.69;;;-0.50
70819;BMP280;58439;51.046;13.692;2023-04-03T04:46:56;101260.84;;;-0.47
70819;BMP280;58439;51.046;13.692;2023-04-03T04:50:31;101263.97;;;-0.42
70819;BMP280;58439;51.046;13.692;2023-04-03T04:53:44;101263.16;;;-0.42
70819;BMP280;58439;51.046;13.692;2023-04-03T04:56:15;101262.13;;;-0.40
70819;BMP280;58439;51.046;13.692;2023-04-03T04:58:43;101259.94;;;-0.30
70819;BMP280;58439;51.046;13.692;2023-04-03T05:01:11;101275.91;;;-0.25
70819;BMP280;58439;51.046;13.692;2023-04-03T05:04:02;101274.06;;;-0.07
70819;BMP280;58439;51.046;13.692;2023-04-03T05:06:29;101276.00;;;0.04
70819;BMP280;58439;51.046;13.692;2023-04-03T05:09:03;101269.00;;;0.21
70819;BMP280;58439;51.046;13.692;2023-04-03T05:11:32;101275.69;;;0.38
70819;BMP280;58439;51.046;13.692;2023-04-03T05:13:59;101274.09;;;0.52
70819;BMP280;58439;51.046;13.692;2023-04-03T05:16:28;101279.16;;;0.67
70819;BMP280;58439;51.046;13.692;2023-04-03T05:19:02;101279.13;;;0.82
70819;BMP280;58439;51.046;13.692;2023-04-03T05:21:34;101283.00;;;0.89
70819;BMP280;58439;51.046;13.692;2023-04-03T05:24:10;101284.19;;;0.97
70819;BMP280;58439;51.046;13.692;2023-04-03T05:26:40;101285.66;;;1.02
70819;BMP280;58439;51.046;13.692;2023-04-03T05:29:09;101278.88;;;1.01
70819;BMP280;58439;51.046;13.692;2023-04-03T05:31:37;101282.16;;;1.03
70819;BMP280;58439;51.046;13.692;2023-04-03T05:34:07;101286.03;;;1.10
70819;BMP280;58439;51.046;13.692;2023-04-03T05:36:36;101286.31;;;1.19
70819;BMP280;58439;51.046;13.692;2023-04-03T05:39:07;101286.31;;;1.19
70819;BMP280;58439;51.046;13.692;2023-04-03T05:41:38;101301.13;;;1.16
70819;BMP280;58439;51.046;13.692;2023-04-03T05:44:05;101292.47;;;1.17
70819;BMP280;58439;51.046;13.692;2023-04-03T05:46:33;101295.69;;;1.20
70819;BMP280;58439;51.046;13.692;2023-04-03T05:49:04;101299.19;;;1.19
70819;BMP280;58439;51.046;13.692;2023-04-03T05:51:36;101292.47;;;1.17
70819;BMP280;58439;51.046;13.692;2023-04-03T05:54:20;101289.88;;;1.17
70819;BMP280;58439;51.046;13.692;2023-04-03T05:56:53;101293.81;;;1.22
70819;BMP280;58439;51.046;13.692;2023-04-03T05:59:21;101295.94;;;1.30
70819;BMP280;58439;51.046;13.692;2023-04-03T06:01:51;101304.09;;;1.37
70819;BMP280;58439;51.046;13.692;2023-04-03T06:04:19;101297.00;;;1.40
70819;BMP280;58439;51.046;13.692;2023-04-03T06:06:54;101303.63;;;1.44
70819;BMP280;58439;51.046;13.692;2023-04-03T06:09:26;101310.41;;;1.45
70819;BMP280;58439;51.046;13.692;2023-04-03T06:11:57;101304.31;;;1.46
70819;BMP280;58439;51.046;13.692;2023-04-03T06:14:27;101310.22;;;1.48
70819;BMP280;58439;51.046;13.692;2023-04-03T06:16:54;101305.91;;;1.49
70819;BMP280;58439;51.046;13.692;2023-04-03T06:19:23;101312.63;;;1.52
70819;BMP280;58439;51.046;13.692;2023-04-03T06:26:42;101314.47;;;1.49
70819;BMP280;58439;51.046;13.692;2023-04-03T06:36:10;101316.97;;;1.51
70819;BMP280;58439;51.046;13.692;2023-04-03T06:43:54;101321.63;;;1.59
70819;BMP280;58439;51.046;13.692;2023-04-03T06:46:26;101318.13;;;1.60
70819;BMP280;58439;51.046;13.692;2023-04-03T06:48:54;101320.41;;;1.64
70819;BMP280;58439;51.046;13.692;2023-04-03T06:51:25;101332.09;;;1.70
70819;BMP280;58439;51.046;13.692;2023-04-03T06:53:56;101326.56;;;1.76
70819;BMP280;58439;51.046;13.692;2023-04-03T06:56:25;101329.13;;;1.76
70819;BMP280;58439;51.046;13.692;2023-04-03T06:58:55;101332.72;;;1.73
70819;BMP280;58439;51.046;13.692;2023-04-03T07:01:26;101325.72;;;1.76
70819;BMP280;58439;51.046;13.692;2023-04-03T07:04:24;101331.22;;;1.84
70819;BMP280;58439;51.046;13.692;2023-04-03T07:09:13;101333.09;;;1.94
70819;BMP280;58439;51.046;13.692;2023-04-03T07:12:41;101342.38;;;1.97
70819;BMP280;58439;51.046;13.692;2023-04-03T07:31:42;101366.41;;;2.24
70819;BMP280;58439;51.046;13.692;2023-04-03T07:34:16;101370.88;;;2.22
70819;BMP280;58439;51.046;13.692;2023-04-03T07:39:59;101364.13;;;2.20
70819;BMP280;58439;51.046;13.692;2023-04-03T07:43:03;101374.28;;;2.23
70819;BMP280;58439;51.046;13.692;2023-04-03T07:51:52;101382.47;;;2.30
70819;BMP280;58439;51.046;13.692;2023-04-03T07:54:49;101377.38;;;2.41
70819;BMP280;58439;51.046;13.692;2023-04-03T07:57:25;101376.47;;;2.55
70819;BMP280;58439;51.046;13.692;2023-04-03T07:59:52;101374.94;;;2.65
70819;BMP280;58439;51.046;13.692;2023-04-03T08:02:21;101374.63;;;2.82
70819;BMP280;58439;51.046;13.692;2023-04-03T08:04:49;101371.69;;;2.99
70819;BMP280;58439;51.046;13.692;2023-04-03T08:07:20;101380.88;;;3.04
70819;BMP280;58439;51.046;13.692;2023-04-03T08:09:48;101374.88;;;3.16
70819;BMP280;58439;51.046;13.692;2023-04-03T08:12:47;101367.59;;;3.34
70819;BMP280;58439;51.046;13.692;2023-04-03T08:15:18;101374.03;;;3.52
70819;BMP280;58439;51.046;13.692;2023-04-03T08:17:46;101371.13;;;3.69
70819;BMP280;58439;51.046;13.692;2023-04-03T08:20:30;101373.94;;;3.77
70819;BMP280;58439;51.046;13.692;2023-04-03T08:23:01;101376.69;;;3.87
70819;BMP280;58439;51.046;13.692;2023-04-03T08:25:44;101371.78;;;3.84
70819;BMP280;58439;51.046;13.692;2023-04-03T08:28:27;101379.19;;;3.89
70819;BMP280;58439;51.046;13.692;2023-04-03T08:31:16;101377.94;;;4.06
70819;BMP280;58439;51.046;13.692;2023-04-03T08:41:42;101383.47;;;4.36
70819;BMP280;58439;51.046;13.692;2023-04-03T08:44:55;101392.16;;;4.35
70819;BMP280;58439;51.046;13.692;2023-04-03T08:48:04;101391.00;;;4.50
70819;BMP280;58439;51.046;13.692;2023-04-03T08:50:43;101389.63;;;4.58
70819;BMP280;58439;51.046;13.692;2023-04-03T08:53:22;101387.50;;;4.51
70819;BMP280;58439;51.046;13.692;2023-04-03T08:55:54;101384.19;;;4.49
70819;BMP280;58439;51.046;13.692;2023-04-03T08:58:50;101391.75;;;4.52
70819;BMP280;58439;51.046;13.692;2023-04-03T09:01:48;101390.31;;;4.71
70819;BMP280;58439;51.046;13.692;2023-04-03T09:04:17;101388.94;;;4.89
70819;BMP280;58439;51.046;13.692;2023-04-03T09:07:08;101391.97;;;5.05
70819;BMP280;58439;51.046;13.692;2023-04-03T09:09:43;101391.97;;;5.05
70819;BMP280;58439;51.046;13.692;2023-04-03T09:12:25;101390.91;;;4.97
70819;BMP280;58439;51.046;13.692;2023-04-03T09:15:43;101385.28;;;4.92
70819;BMP280;58439;51.046;13.692;2023-04-03T09:19:56;101388.34;;;5.08
70819;BMP280;58439;51.046;13.692;2023-04-03T09:22:17;101384.41;;;5.68
70819;BMP280;58439;51.046;13.692;2023-04-03T09:24:52;101388.13;;;6.07
70819;BMP280;58439;51.046;13.692;2023-04-03T09:27:24;101383.41;;;6.33
70819;BMP280;58439;51.046;13.692;2023-04-03T09:29:57;101384.41;;;6.21
70819;BMP280;58439;51.046;13.692;2023-04-03T09:32:32;101383.09;;;6.06
70819;BMP280;58439;51.046;13.692;2023-04-03T09:35:26;101386.13;;;6.21
70819;BMP280;58439;51.046;13.692;2023-04-03T09:40:39;101379.66;;;6.36
70819;BMP280;58439;51.046;13.692;2023-04-03T09:43:29;101377.84;;;6.27
70819;BMP280;58439;51.046;13.692;2023-04-03T09:53:40;101365.13;;;6.24
70819;BMP280;58439;51.046;13.692;2023-04-03T09:56:54;101366.91;;;6.54
70819;BMP280;58439;51.046;13.692;2023-04-03T09:59:23;101360.63;;;6.87
70819;BMP280;58439;51.046;13.692;2023-04-03T10:04:52;101354.47;;;7.94
70819;BMP280;58439;51.046;13.692;2023-04-03T10:07:37;101354.13;;;7.80
70819;BMP280;58439;51.046;13.692;2023-04-03T10:10:31;101351.44;;;7.99
70819;BMP280;58439;51.046;13.692;2023-04-03T10:13:34;101353.81;;;7.63
70819;BMP280;58439;51.046;13.692;2023-04-03T10:16:48;101351.00;;;6.87
70819;BMP280;58439;51.046;13.692;2023-04-03T10:25:54;101332.47;;;7.11
70819;BMP280;58439;51.046;13.692;2023-04-03T10:28:47;101338.19;;;7.73
70819;BMP280;58439;51.046;13.692;2023-04-03T10:31:33;101335.47;;;7.55
70819;BMP280;58439;51.046;13.692;2023-04-03T10:34:40;101333.56;;;7.28
70819;BMP280;58439;51.046;13.692;2023-04-03T10:40:29;101335.84;;;7.02
70819;BMP280;58439;51.046;13.692;2023-04-03T10:43:25;101333.00;;;7.05
70819;BMP280;58439;51.046;13.692;2023-04-03T10:46:13;101329.44;;;6.97
70819;BMP280;58439;51.046;13.692;2023-04-03T10:52:13;101319.28;;;6.93
70819;BMP280;58439;51.046;13.692;2023-04-03T10:57:26;101316.41;;;7.06
70819;BMP280;58439;51.046;13.692;2023-04-03T11:00:02;101324.53;;;7.23
70819;BMP280;58439;51.046;13.692;2023-04-03T11:02:42;101323.41;;;8.20
70819;BMP280;58439;51.046;13.692;2023-04-03T11:05:47;101318.69;;;7.87
70819;BMP280;58439;51.046;13.692;2023-04-03T11:08:29;101318.09;;;7.56
70819;BMP280;58439;51.046;13.692;2023-04-03T11:11:06;101311.91;;;7.18
70819;BMP280;58439;51.046;13.692;2023-04-03T11:14:02;101306.72;;;7.08
70819;BMP280;58439;51.046;13.692;2023-04-03T11:16:42;101312.31;;;6.94
70819;BMP280;58439;51.046;13.692;2023-04-03T11:19:56;101302.19;;;7.01
70819;BMP280;58439;51.046;13.692;2023-04-03T11:22:33;101300.50;;;6.90
70819;BMP280;58439;51.046;13.692;2023-04-03T11:28:01;101300.81;;;7.06
70819;BMP280;58439;51.046;13.692;2023-04-03T11:31:23;101303.28;;;7.37
70819;BMP280;58439;51.046;13.692;2023-04-03T11:37:00;101297.00;;;9.06
70819;BMP280;58439;51.046;13.692;2023-04-03T11:39:31;101290.53;;;9.62
70819;BMP280;58439;51.046;13.692;2023-04-03T11:42:30;101288.94;;;9.25
70819;BMP280;58439;51.046;13.692;2023-04-03T11:45:25;101297.94;;;8.42
70819;BMP280;58439;51.046;13.692;2023-04-03T11:48:04;101291.09;;;7.94
70819;BMP280;58439;51.046;13.692;2023-04-03T11:50:50;101295.41;;;7.85
70819;BMP280;58439;51.046;13.692;2023-04-03T11:53:35;101290.34;;;8.21
70819;BMP280;58439;51.046;13.692;2023-04-03T12:01:55;101291.06;;;7.76
70819;BMP280;58439;51.046;13.692;2023-04-03T12:04:26;101282.72;;;7.43
70819;BMP280;58439;51.046;13.692;2023-04-03T12:07:11;101287.94;;;7.14
70819;BMP280;58439;51.046;13.692;2023-04-03T12:12:35;101282.47;;;7.17
70819;BMP280;58439;51.046;13.692;2023-04-03T12:15:41;101288.19;;;7.50
70819;BMP280;58439;51.046;13.692;2023-04-03T12:18:56;101291.31;;;7.73
70819;BMP280;58439;51.046;13.692;2023-04-03T12:26:50;101275.91;;;8.54
70819;BMP280;58439;51.046;13.692;2023-04-03T12:35:31;101279.63;;;7.87
70819;BMP280;58439;51.046;13.692;2023-04-03T12:41:18;101272.34;;;7.24
70819;BMP280;58439;51.046;13.692;2023-04-03T12:47:35;101277.97;;;7.95
70819;BMP280;58439;51.046;13.692;2023-04-03T12:50:21;101277.44;;;7.92
70819;BMP280;58439;51.046;13.692;2023-04-03T12:52:59;101275.59;;;7.55
70819;BMP280;58439;51.046;13.692;2023-04-03T12:55:27;101280.53;;;7.49
70819;BMP280;58439;51.046;13.692;2023-04-03T12:58:31;101271.38;;;7.35
70819;BMP280;58439;51.046;13.692;2023-04-03T13:01:10;101273.16;;;7.25
70819;BMP280;58439;51.046;13.692;2023-04-03T13:03:45;101277.28;;;7.17
70819;BMP280;58439;51.046;13.692;2023-04-03T13:06:28;101279.44;;;7.32
70819;BMP280;58439;51.046;13.692;2023-04-03T13:09:00;101277.25;;;7.46
70819;BMP280;58439;51.046;13.692;2023-04-03T13:11:37;101279.81;;;7.66
70819;BMP280;58439;51.046;13.692;2023-04-03T13:14:20;101289.06;;;7.97
70819;BMP280;58439;51.046;13.692;2023-04-03T13:17:02;101279.41;;;8.45
70819;BMP280;58439;51.046;13.692;2023-04-03T13:19:39;101283.72;;;9.25
70819;BMP280;58439;51.046;13.692;2023-04-03T13:22:48;101280.53;;;9.31
70819;BMP280;58439;51.046;13.692;2023-04-03T13:25:19;101283.44;;;9.80
70819;BMP280;58439;51.046;13.692;2023-04-03T13:27:49;101284.13;;;11.79
70819;BMP280;58439;51.046;13.692;2023-04-03T13:30:31;101274.41;;;12.50
70819;BMP280;58439;51.046;13.692;2023-04-03T13:33:17;101279.81;;;11.07
70819;BMP280;58439;51.046;13.692;2023-04-03T13:35:45;101273.69;;;9.90
70819;BMP280;58439;51.046;13.692;2023-04-03T13:40:57;101270.19;;;9.04
70819;BMP280;58439;51.046;13.692;2023-04-03T13:43:34;101270.47;;;9.71
70819;BMP280;58439;51.046;13.692;2023-04-03T13:46:25;101263.97;;;10.09
70819;BMP280;58439;51.046;13.692;2023-04-03T13:48:59;101254.88;;;10.13
70819;BMP280;58439;51.046;13.692;2023-04-03T13:51:45;101265.03;;;10.32
70819;BMP280;58439;51.046;13.692;2023-04-03T13:54:35;101261.06;;;10.20
70819;BMP280;58439;51.046;13.692;2023-04-03T13:57:31;101259.16;;;10.30
70819;BMP280;58439;51.046;13.692;2023-04-03T14:00:51;101259.63;;;9.49
70819;BMP280;58439;51.046;13.692;2023-04-03T14:04:19;101259.63;;;8.42
70819;BMP280;58439;51.046;13.692;2023-04-03T14:06:49;101262.09;;;7.89
70819;BMP280;58439;51.046;13.692;2023-04-03T14:09:24;101260.22;;;7.71
70819;BMP280;58439;51.046;13.692;2023-04-03T14:12:39;101254.91;;;7.54
70819;BMP280;58439;51.046;13.692;2023-04-03T14:15:20;101256.28;;;7.67
70819;BMP280;58439;51.046;13.692;2023-04-03T14:17:52;101258.06;;;8.95
70819;BMP280;58439;51.046;13.692;2023-04-03T14:20:24;101249.38;;;10.65
70819;BMP280;58439;51.046;13.692;2023-04-03T14:22:54;101256.09;;;10.67
70819;BMP280;58439;51.046;13.692;2023-04-03T14:25:25;101259.53;;;9.67
70819;BMP280;58439;51.046;13.692;2023-04-03T14:35:16;101266.84;;;7.46
70819;BMP280;58439;51.046;13.692;2023-04-03T14:37:54;101262.59;;;7.26
70819;BMP280;58439;51.046;13.692;2023-04-03T14:40:26;101261.91;;;7.14
70819;BMP280;58439;51.046;13.692;2023-04-03T14:42:54;101270.16;;;7.10
70819;BMP280;58439;51.046;13.692;2023-04-03T14:45:23;101263.03;;;7.22
70819;BMP280;58439;51.046;13.692;2023-04-03T14:47:54;101265.50;;;7.23
70819;BMP280;58439;51.046;13.692;2023-04-03T14:50:28;101264.13;;;7.29
70819;BMP280;58439;51.046;13.692;2023-04-03T14:52:59;101263.13;;;7.59
70819;BMP280;58439;51.046;13.692;2023-04-03T14:55:29;101265.59;;;8.07
70819;BMP280;58439;51.046;13.692;2023-04-03T14:57:56;101264.66;;;8.26
70819;BMP280;58439;51.046;13.692;2023-04-03T15:00:23;101256.97;;;8.52
70819;BMP280;58439;51.046;13.692;2023-04-03T15:02:51;101254.84;;;8.83
70819;BMP280;58439;51.046;13.692;2023-04-03T15:05:18;101252.03;;;9.20
70819;BMP280;58439;51.046;13.692;2023-04-03T15:07:58;101246.63;;;11.15
70819;BMP280;58439;51.046;13.692;2023-04-03T15:10:30;101260.41;;;12.04
70819;BMP280;58439;51.046;13.692;2023-04-03T15:12:58;101257.19;;;11.46
70819;BMP280;58439;51.046;13.692;2023-04-03T15:15:29;101245.63;;;10.59
70819;BMP280;58439;51.046;13.692;2023-04-03T15:18:05;101243.09;;;10.17
70819;BMP280;58439;51.046;13.692;2023-04-03T15:20:32;101250.38;;;9.97
70819;BMP280;58439;51.046;13.692;2023-04-03T15:23:04;101251.66;;;9.85
70819;BMP280;58439;51.046;13.692;2023-04-03T15:25:38;101248.94;;;10.11
70819;BMP280;58439;51.046;13.692;2023-04-03T15:28:37;101240.75;;;10.48
70819;BMP280;58439;51.046;13.692;2023-04-03T15:31:11;101248.97;;;10.19
70819;BMP280;58439;51.046;13.692;2023-04-03T15:33:51;101252.13;;;10.31
70819;BMP280;58439;51.046;13.692;2023-04-03T15:36:19;101244.00;;;11.15
70819;BMP280;58439;51.046;13.692;2023-04-03T15:39:00;101251.78;;;11.56
70819;BMP280;58439;51.046;13.692;2023-04-03T15:41:28;101255.94;;;10.53
70819;BMP280;58439;51.046;13.692;2023-04-03T15:43:55;101252.56;;;9.24
70819;BMP280;58439;51.046;13.692;2023-04-03T15:46:25;101257.56;;;8.18
70819;BMP280;58439;51.046;13.692;2023-04-03T15:48:54;101255.06;;;7.52
70819;BMP280;58439;51.046;13.692;2023-04-03T15:51:21;101249.19;;;7.11
70819;BMP280;58439;51.046;13.692;2023-04-03T15:53:52;101253.97;;;6.77
70819;BMP280;58439;51.046;13.692;2023-04-03T15:56:19;101252.66;;;6.52
70819;BMP280;58439;51.046;13.692;2023-04-03T15:58:46;101255.53;;;6.49
70819;BMP280;58439;51.046;13.692;2023-04-03T16:01:13;101259.19;;;6.37
70819;BMP280;58439;51.046;13.692;2023-04-03T16:03:43;101252.91;;;6.30
70819;BMP280;58439;51.046;13.692;2023-04-03T16:06:14;101255.34;;;6.31
70819;BMP280;58439;51.046;13.692;2023-04-03T16:08:42;101254.06;;;6.16
70819;BMP280;58439;51.046;13.692;2023-04-03T16:11:09;101254.69;;;6.08
70819;BMP280;58439;51.046;13.692;2023-04-03T16:13:37;101254.22;;;5.94
70819;BMP280;58439;51.046;13.692;2023-04-03T16:16:05;101258.06;;;5.90
70819;BMP280;58439;51.046;13.692;2023-04-03T16:18:35;101260.03;;;5.76
70819;BMP280;58439;51.046;13.692;2023-04-03T16:21:06;101256.03;;;5.72
70819;BMP280;58439;51.046;13.692;2023-04-03T16:23:34;101259.00;;;5.68
70819;BMP280;58439;51.046;13.692;2023-04-03T16:26:55;101258.41;;;5.64
70819;BMP280;58439;51.046;13.692;2023-04-03T16:29:57;101257.19;;;5.58
70819;BMP280;58439;51.046;13.692;2023-04-03T16:32:29;101254.94;;;5.54
70819;BMP280;58439;51.046;13.692;2023-04-03T16:34:58;101253.94;;;5.45
70819;BMP280;58439;51.046;13.692;2023-04-03T16:37:30;101258.66;;;5.40
70819;BMP280;58439;51.046;13.692;2023-04-03T16:39:59;101259.69;;;5.28
70819;BMP280;58439;51.046;13.692;2023-04-03T16:42:26;101261.00;;;5.22
70819;BMP280;58439;51.046;13.692;2023-04-03T16:44:53;101272.22;;;5.12
70819;BMP280;58439;51.046;13.692;2023-04-03T16:47:20;101260.63;;;4.95
70819;BMP280;58439;51.046;13.692;2023-04-03T16:49:47;101263.69;;;4.89
70819;BMP280;58439;51.046;13.692;2023-04-03T16:52:15;101264.50;;;4.89
70819;BMP280;58439;51.046;13.692;2023-04-03T16:54:43;101260.63;;;4.84
70819;BMP280;58439;51.046;13.692;2023-04-03T16:57:10;101263.22;;;4.84
70819;BMP280;58439;51.046;13.692;2023-04-03T16:59:41;101260.25;;;4.88
70819;BMP280;58439;51.046;13.692;2023-04-03T17:02:08;101265.22;;;4.91
70819;BMP280;58439;51.046;13.692;2023-04-03T17:04:36;101257.31;;;4.81
70819;BMP280;58439;51.046;13.692;2023-04-03T17:07:03;101261.25;;;4.76